createdAt,value
2019-04-27T00:00:14.286Z,78.70
2019-04-27T00:02:44.661Z,79.20
2019-04-27T00:05:17.680Z,80.10
2019-04-27T00:07:51.395Z,80.60
2019-04-27T00:10:31.359Z,80.80
2019-04-27T00:13:02.186Z,79.80
2019-04-27T00:15:34.395Z,79.60
2019-04-27T00:18:04.254Z,79.30
2019-04-27T00:20:40.171Z,80.10
2019-04-27T00:23:10.470Z,80.90
2019-04-27T00:25:39.144Z,80.70
2019-04-27T00:28:07.887Z,80.10
2019-04-27T00:30:36.637Z,80.00
2019-04-27T00:33:05.503Z,80.30
2019-04-27T00:35:36.218Z,80.20
2019-04-27T00:38:09.426Z,80.00
2019-04-27T00:40:39.753Z,80.70
2019-04-27T00:43:08.411Z,81.70
2019-04-27T00:45:37.237Z,83.50
2019-04-27T00:48:06.020Z,84.00
2019-04-27T00:50:34.683Z,85.80
2019-04-27T00:53:03.540Z,86.70
2019-04-27T00:55:34.110Z,87.50
2019-04-27T00:58:04.403Z,88.00
2019-04-27T01:00:40.426Z,88.10
2019-04-27T01:03:13.939Z,88.80
2019-04-27T01:05:43.165Z,89.40
2019-04-27T01:08:13.790Z,90.10
2019-04-27T01:10:43.549Z,90.20
2019-04-27T01:13:13.257Z,90.40
2019-04-27T01:15:43.027Z,90.40
2019-04-27T01:18:15.329Z,90.60
2019-04-27T01:20:42.362Z,90.80
2019-04-27T01:23:11.028Z,90.50
2019-04-27T01:25:41.315Z,90.10
2019-04-27T01:28:20.629Z,90.10
2019-04-27T01:30:54.014Z,90.30
2019-04-27T01:33:22.759Z,90.40
2019-04-27T01:35:51.407Z,90.50
2019-04-27T01:38:20.099Z,90.30
2019-04-27T01:40:49.830Z,90.00
2019-04-27T01:43:18.693Z,90.10
2019-04-27T01:45:48.819Z,89.90
2019-04-27T01:48:23.724Z,90.30
2019-04-27T01:50:49.229Z,90.50
2019-04-27T01:53:19.036Z,90.00
2019-04-27T01:55:49.137Z,89.50
2019-04-27T01:58:20.126Z,89.20
2019-04-27T02:00:52.688Z,89.00
2019-04-27T02:03:33.207Z,89.10
2019-04-27T02:05:59.436Z,89.10
2019-04-27T02:08:28.620Z,89.00
2019-04-27T02:10:59.280Z,89.20
2019-04-27T02:13:29.030Z,88.30
2019-04-27T02:15:58.817Z,87.90
2019-04-27T02:18:35.633Z,87.50
2019-04-27T02:20:59.126Z,88.70
2019-04-27T02:23:29.355Z,87.90
2019-04-27T02:25:58.689Z,87.70
2019-04-27T02:28:47.115Z,87.50
2019-04-27T02:31:26.211Z,87.90
2019-04-27T02:34:02.511Z,88.70
2019-04-27T02:36:31.233Z,89.30
2019-04-27T02:38:59.882Z,88.80
2019-04-27T02:41:29.745Z,89.50
2019-04-27T02:44:01.731Z,88.60
2019-04-27T02:46:31.587Z,88.20
2019-04-27T02:49:06.069Z,87.80
2019-04-27T02:51:35.172Z,87.60
2019-04-27T02:54:03.919Z,87.40
2019-04-27T02:56:32.643Z,87.10
2019-04-27T02:59:01.303Z,87.60
2019-04-27T03:01:31.683Z,87.70
2019-04-27T03:04:00.653Z,88.30
2019-04-27T03:06:30.218Z,88.10
2019-04-27T03:09:00.490Z,88.20
2019-04-27T03:11:30.997Z,87.20
2019-04-27T03:14:29.423Z,87.70
2019-04-27T03:17:05.685Z,88.60
2019-04-27T03:19:39.796Z,89.90
2019-04-27T03:22:16.590Z,90.50
2019-04-27T03:25:00.193Z,91.00
2019-04-27T03:27:45.913Z,91.30
2019-04-27T03:30:16.075Z,91.20
2019-04-27T03:32:44.937Z,91.90
2019-04-27T03:35:14.246Z,91.80
2019-04-27T03:37:43.116Z,91.80
2019-04-27T03:40:12.094Z,92.10
2019-04-27T03:42:42.384Z,92.20
2019-04-27T03:45:11.211Z,92.40
2019-04-27T03:47:40.965Z,92.40
2019-04-27T03:50:12.418Z,92.20
2019-04-27T03:52:42.786Z,92.30
2019-04-27T03:55:19.756Z,92.30
2019-04-27T03:58:00.069Z,92.10
2019-04-27T04:00:30.780Z,92.10
2019-04-27T04:03:00.532Z,92.60
2019-04-27T04:05:30.045Z,92.90
2019-04-27T04:08:00.418Z,92.80
2019-04-27T04:10:31.135Z,92.50
2019-04-27T04:13:01.906Z,92.10
2019-04-27T04:15:41.428Z,91.90
2019-04-27T04:18:10.126Z,91.70
2019-04-27T04:20:40.485Z,91.80
2019-04-27T04:23:10.551Z,91.60
2019-04-27T04:25:40.961Z,91.70
2019-04-27T04:28:09.912Z,91.60
2019-04-27T04:30:40.296Z,91.60
2019-04-27T04:33:10.153Z,91.70
2019-04-27T04:35:39.913Z,92.00
2019-04-27T04:38:10.378Z,92.40
2019-04-27T04:40:46.773Z,92.60
2019-04-27T04:43:25.938Z,92.60
2019-04-27T04:46:12.765Z,92.20
2019-04-27T04:48:40.364Z,92.30
2019-04-27T04:51:10.070Z,92.30
2019-04-27T04:53:40.560Z,91.90
2019-04-27T04:56:10.672Z,91.60
2019-04-27T04:58:42.727Z,91.60
2019-04-27T05:01:11.450Z,91.40
2019-04-27T05:03:40.183Z,91.10
2019-04-27T05:06:08.907Z,90.90
2019-04-27T05:08:39.264Z,91.20
2019-04-27T05:11:09.670Z,90.90
2019-04-27T05:13:39.347Z,90.40
2019-04-27T05:16:08.977Z,90.40
2019-04-27T05:18:39.257Z,90.40
2019-04-27T05:21:18.805Z,90.50
2019-04-27T05:23:48.713Z,90.30
2019-04-27T05:26:19.016Z,90.20
2019-04-27T05:28:49.195Z,89.70
2019-04-27T05:31:19.509Z,88.20
2019-04-27T05:33:49.054Z,87.40
2019-04-27T05:36:19.266Z,86.80
2019-04-27T05:38:49.660Z,87.10
2019-04-27T05:41:23.798Z,87.50
2019-04-27T05:43:59.185Z,86.70
2019-04-27T05:46:45.891Z,86.70
2019-04-27T05:49:20.611Z,86.60
2019-04-27T05:51:50.153Z,86.40
2019-04-27T05:54:19.866Z,85.60
2019-04-27T05:56:49.294Z,84.70
2019-04-27T05:59:19.833Z,83.90
2019-04-27T06:01:49.316Z,83.00
2019-04-27T06:04:19.282Z,82.90
2019-04-27T06:06:50.322Z,82.60
2019-04-27T06:09:19.536Z,82.50
2019-04-27T06:11:48.639Z,82.00
2019-04-27T06:14:19.243Z,81.90
2019-04-27T06:16:50.954Z,81.00
2019-04-27T06:19:19.327Z,81.10
2019-04-27T06:21:49.826Z,80.60
2019-04-27T06:24:18.689Z,80.70
2019-04-27T06:26:49.635Z,80.60
2019-04-27T06:29:19.380Z,79.70
2019-04-27T06:31:49.600Z,79.70
2019-04-27T06:34:19.389Z,79.30
2019-04-27T06:36:48.648Z,80.10
2019-04-27T06:39:18.919Z,78.50
2019-04-27T06:41:49.083Z,78.30
2019-04-27T06:44:19.574Z,78.50
2019-04-27T06:46:49.019Z,79.00
2019-04-27T06:49:19.474Z,79.50
2019-04-27T06:51:49.791Z,79.60
2019-04-27T06:54:21.054Z,79.80
2019-04-27T06:56:49.280Z,80.00
2019-04-27T06:59:18.637Z,79.70
2019-04-27T07:01:48.862Z,80.60
2019-04-27T07:04:19.419Z,80.30
2019-04-27T07:06:54.204Z,80.10
2019-04-27T07:09:19.625Z,80.90
2019-04-27T07:11:49.438Z,80.80
2019-04-27T07:14:19.702Z,79.00
2019-04-27T07:16:48.847Z,78.30
2019-04-27T07:19:19.120Z,78.10
2019-04-27T07:21:49.631Z,76.80
2019-04-27T07:24:19.659Z,75.80
2019-04-27T07:26:48.931Z,75.50
2019-04-27T07:29:19.391Z,76.60
2019-04-27T07:31:49.557Z,76.20
2019-04-27T07:34:19.014Z,76.90
2019-04-27T07:36:49.097Z,76.30
2019-04-27T07:39:19.235Z,74.10
2019-04-27T07:41:48.781Z,74.10
2019-04-27T07:44:34.586Z,72.50
2019-04-27T07:47:19.820Z,73.40
2019-04-27T07:49:49.637Z,72.60
2019-04-27T07:52:20.425Z,71.10
2019-04-27T07:54:49.324Z,71.20
2019-04-27T07:57:19.739Z,71.10
2019-04-27T07:59:50.097Z,69.60
2019-04-27T08:02:19.226Z,65.40
2019-04-27T08:04:50.305Z,65.00
2019-04-27T08:07:19.679Z,65.70
2019-04-27T08:09:49.663Z,62.50
2019-04-27T08:12:20.670Z,62.60
2019-04-27T08:14:49.234Z,60.40
2019-04-27T08:17:19.119Z,61.90
2019-04-27T08:19:49.606Z,59.80
2019-04-27T08:22:19.335Z,62.20
2019-04-27T08:24:49.574Z,62.20
2019-04-27T08:27:32.480Z,62.20
2019-04-27T08:30:02.770Z,62.80
2019-04-27T08:32:33.089Z,62.40
2019-04-27T08:35:01.810Z,62.20
2019-04-27T08:37:30.502Z,61.20
2019-04-27T08:39:59.262Z,62.50
2019-04-27T08:42:29.363Z,61.30
2019-04-27T08:44:59.406Z,59.90
2019-04-27T08:47:29.314Z,60.30
2019-04-27T08:49:59.108Z,59.10
2019-04-27T08:52:28.981Z,58.20
2019-04-27T08:54:59.414Z,58.00
2019-04-27T08:57:28.978Z,56.50
2019-04-27T08:59:59.707Z,54.90
2019-04-27T09:02:39.759Z,58.30
2019-04-27T09:04:59.633Z,57.70
2019-04-27T09:07:39.798Z,57.00
2019-04-27T09:10:13.944Z,58.60
2019-04-27T09:12:47.133Z,56.90
2019-04-27T09:15:19.161Z,54.80
2019-04-27T09:17:52.262Z,50.40
2019-04-27T09:20:22.640Z,49.60
2019-04-27T09:22:51.374Z,49.90
2019-04-27T09:25:20.096Z,49.10
2019-04-27T09:27:49.298Z,50.10
2019-04-27T09:30:19.074Z,50.10
2019-04-27T09:32:47.940Z,51.00
2019-04-27T09:35:16.666Z,51.10
2019-04-27T09:37:45.848Z,51.20
2019-04-27T09:40:15.068Z,50.20
2019-04-27T09:42:43.723Z,49.80
2019-04-27T09:45:12.722Z,49.10
2019-04-27T09:47:41.382Z,48.70
2019-04-27T09:50:10.404Z,50.00
2019-04-27T09:52:39.048Z,47.80
2019-04-27T09:55:08.508Z,46.60
2019-04-27T09:57:37.321Z,44.80
2019-04-27T10:00:11.200Z,44.10
2019-04-27T10:02:39.921Z,43.50
2019-04-27T10:05:08.855Z,41.20
2019-04-27T10:07:37.508Z,37.30
2019-04-27T10:10:07.808Z,36.50
2019-04-27T10:12:36.981Z,37.10
2019-04-27T10:15:06.943Z,35.60
2019-04-27T10:17:35.599Z,34.70
2019-04-27T10:20:06.146Z,34.20
2019-04-27T10:22:41.194Z,32.50
2019-04-27T10:25:09.926Z,33.20
2019-04-27T10:27:38.583Z,30.70
2019-04-27T10:30:10.953Z,28.80
2019-04-27T10:32:39.597Z,27.90
2019-04-27T10:35:08.461Z,26.70
2019-04-27T10:37:37.194Z,26.60
2019-04-27T10:40:06.254Z,25.50
2019-04-27T10:42:35.820Z,25.10
2019-04-27T10:45:06.558Z,24.20
2019-04-27T10:47:36.027Z,24.50
2019-04-27T10:50:06.411Z,24.70
2019-04-27T10:52:35.180Z,24.00
2019-04-27T10:55:05.956Z,22.40
2019-04-27T10:57:34.888Z,20.60
2019-04-27T11:00:06.682Z,21.00
2019-04-27T11:02:35.591Z,20.30
2019-04-27T11:05:14.439Z,18.60
2019-04-27T11:07:43.240Z,20.40
2019-04-27T11:10:12.104Z,20.80
2019-04-27T11:12:40.768Z,19.00
2019-04-27T11:15:10.669Z,20.20
2019-04-27T11:17:39.423Z,19.10
2019-04-27T11:20:09.017Z,18.10
2019-04-27T11:22:37.850Z,17.60
2019-04-27T11:25:10.546Z,16.80
2019-04-27T11:27:39.238Z,17.00
2019-04-27T11:30:09.463Z,18.40
2019-04-27T11:32:38.238Z,19.70
2019-04-27T11:35:15.664Z,20.50
2019-04-27T11:37:48.350Z,19.00
2019-04-27T11:40:18.671Z,17.00
2019-04-27T11:42:47.393Z,18.00
2019-04-27T11:45:17.659Z,18.60
2019-04-27T11:47:46.378Z,18.40
2019-04-27T11:50:16.549Z,18.20
2019-04-27T11:52:45.777Z,19.10
2019-04-27T11:55:16.244Z,19.30
2019-04-27T11:57:44.969Z,19.40
2019-04-27T12:00:16.614Z,20.00
2019-04-27T12:02:45.779Z,19.90
2019-04-27T12:05:16.135Z,20.00
2019-04-27T12:07:47.534Z,19.40
2019-04-27T12:10:16.605Z,19.50
2019-04-27T12:12:46.358Z,20.40
2019-04-27T12:15:16.154Z,19.70
2019-04-27T12:17:46.147Z,20.70
2019-04-27T12:20:15.950Z,21.10
2019-04-27T12:22:45.698Z,21.60
2019-04-27T12:25:15.555Z,22.30
2019-04-27T12:27:57.750Z,22.80
2019-04-27T12:30:43.231Z,22.90
2019-04-27T12:33:12.065Z,23.40
2019-04-27T12:35:40.712Z,21.10
2019-04-27T12:38:09.370Z,20.70
2019-04-27T12:40:38.098Z,20.80
2019-04-27T12:43:06.819Z,22.00
2019-04-27T12:45:36.967Z,21.90
2019-04-27T12:48:06.123Z,22.10
2019-04-27T12:50:36.159Z,21.40
2019-04-27T12:53:09.346Z,21.40
2019-04-27T12:55:42.511Z,21.90
2019-04-27T12:58:27.937Z,21.00
2019-04-27T13:01:07.256Z,20.30
2019-04-27T13:03:36.266Z,19.30
2019-04-27T13:06:04.854Z,20.50
2019-04-27T13:08:33.591Z,21.30
2019-04-27T13:11:02.251Z,20.80
2019-04-27T13:13:30.950Z,21.20
2019-04-27T13:16:01.475Z,20.40
2019-04-27T13:18:30.313Z,20.40
2019-04-27T13:20:58.977Z,20.70
2019-04-27T13:23:28.563Z,22.10
2019-04-27T13:25:57.376Z,23.10
2019-04-27T13:28:26.035Z,22.50
2019-04-27T13:30:55.955Z,21.00
2019-04-27T13:33:26.337Z,21.80
2019-04-27T13:35:55.076Z,21.70
2019-04-27T13:38:23.837Z,22.80
2019-04-27T13:41:08.314Z,21.90
2019-04-27T13:43:37.909Z,21.30
2019-04-27T13:46:09.160Z,21.50
2019-04-27T13:48:56.258Z,20.70
2019-04-27T13:51:32.311Z,20.80
2019-04-27T13:54:01.042Z,21.30
2019-04-27T13:56:29.739Z,21.20
2019-04-27T13:58:58.656Z,20.80
2019-04-27T14:01:27.308Z,21.20
2019-04-27T14:03:56.039Z,21.20
2019-04-27T14:06:24.763Z,21.50
2019-04-27T14:08:53.499Z,21.20
2019-04-27T14:11:22.206Z,20.30
2019-04-27T14:13:50.962Z,20.00
2019-04-27T14:16:19.619Z,19.50
2019-04-27T14:18:48.269Z,19.60
2019-04-27T14:21:16.925Z,18.90
2019-04-27T14:23:45.639Z,18.30
2019-04-27T14:26:14.399Z,19.70
2019-04-27T14:28:43.087Z,19.80
2019-04-27T14:31:11.798Z,20.20
2019-04-27T14:33:40.512Z,18.90
2019-04-27T14:36:09.277Z,17.00
2019-04-27T14:38:37.926Z,19.30
2019-04-27T14:41:08.932Z,20.00
2019-04-27T14:43:37.424Z,19.50
2019-04-27T14:46:08.053Z,19.70
2019-04-27T14:48:36.600Z,20.60
2019-04-27T14:51:05.353Z,20.10
2019-04-27T14:53:34.032Z,20.60
2019-04-27T14:56:02.684Z,20.10
2019-04-27T14:58:31.439Z,19.90
2019-04-27T15:01:00.127Z,19.90
2019-04-27T15:03:28.780Z,20.10
2019-04-27T15:05:57.443Z,21.10
2019-04-27T15:08:26.157Z,20.90
2019-04-27T15:10:54.919Z,21.40
2019-04-27T15:13:23.606Z,21.40
2019-04-27T15:15:52.269Z,20.90
2019-04-27T15:18:22.834Z,20.60
2019-04-27T15:20:51.790Z,20.40
2019-04-27T15:23:20.629Z,20.70
2019-04-27T15:25:49.993Z,21.20
2019-04-27T15:28:20.465Z,21.70
2019-04-27T15:30:53.568Z,22.30
2019-04-27T15:33:23.172Z,22.90
2019-04-27T15:35:53.526Z,23.50
2019-04-27T15:38:26.671Z,24.00
2019-04-27T15:40:58.210Z,24.50
2019-04-27T15:43:30.859Z,22.10
2019-04-27T15:45:59.203Z,22.30
2019-04-27T15:48:30.662Z,22.00
2019-04-27T15:51:02.806Z,21.60
2019-04-27T15:53:28.627Z,21.90
2019-04-27T15:56:00.547Z,23.60
2019-04-27T15:58:28.409Z,24.50
2019-04-27T16:01:01.040Z,24.40
2019-04-27T16:03:31.377Z,24.20
2019-04-27T16:06:03.311Z,24.40
2019-04-27T16:08:29.869Z,24.90
2019-04-27T16:10:58.923Z,25.70
2019-04-27T16:13:32.689Z,26.40
2019-04-27T16:15:59.490Z,27.40
2019-04-27T16:18:30.936Z,28.30
2019-04-27T16:20:58.661Z,28.00
2019-04-27T16:23:28.190Z,29.20
2019-04-27T16:25:58.194Z,29.00
2019-04-27T16:28:27.574Z,27.90
2019-04-27T16:30:58.070Z,28.00
2019-04-27T16:33:26.630Z,27.60
2019-04-27T16:36:00.286Z,28.30
2019-04-27T16:38:33.417Z,27.90
2019-04-27T16:41:01.228Z,27.70
2019-04-27T16:43:32.539Z,28.00
2019-04-27T16:46:04.196Z,28.20
2019-04-27T16:48:34.432Z,28.90
2019-04-27T16:51:00.762Z,28.90
2019-04-27T16:53:30.049Z,29.40
2019-04-27T16:56:14.536Z,29.60
2019-04-27T16:58:39.517Z,29.80
2019-04-27T17:01:24.123Z,30.10
2019-04-27T17:03:52.914Z,31.00
2019-04-27T17:06:21.645Z,31.90
2019-04-27T17:08:50.290Z,32.50
2019-04-27T17:11:19.589Z,33.00
2019-04-27T17:14:02.442Z,33.40
2019-04-27T17:16:50.874Z,33.90
2019-04-27T17:19:21.169Z,34.70
2019-04-27T17:21:49.970Z,35.70
2019-04-27T17:24:42.221Z,36.40
2019-04-27T17:27:11.507Z,36.90
2019-04-27T17:29:40.493Z,37.70
2019-04-27T17:32:10.932Z,37.80
2019-04-27T17:34:39.778Z,38.40
2019-04-27T17:37:08.555Z,39.10
2019-04-27T17:39:38.699Z,39.50
2019-04-27T17:42:08.497Z,39.80
2019-04-27T17:44:39.202Z,40.00
2019-04-27T17:47:08.840Z,40.30
2019-04-27T17:49:38.201Z,40.50
2019-04-27T17:52:08.649Z,40.80
2019-04-27T17:54:42.462Z,41.50
2019-04-27T17:57:10.410Z,41.00
2019-04-27T17:59:37.968Z,41.30
2019-04-27T18:02:08.777Z,41.70
2019-04-27T18:04:40.751Z,41.00
2019-04-27T18:07:08.930Z,41.30
2019-04-27T18:09:43.327Z,41.60
2019-04-27T18:12:14.686Z,41.50
2019-04-27T18:14:41.221Z,41.90
2019-04-27T18:17:12.124Z,42.30
2019-04-27T18:19:46.388Z,42.30
2019-04-27T18:22:15.037Z,42.80
2019-04-27T18:24:47.913Z,43.10
2019-04-27T18:27:33.640Z,43.60
2019-04-27T18:30:08.434Z,44.40
2019-04-27T18:32:40.278Z,44.80
2019-04-27T18:35:08.471Z,45.00
2019-04-27T18:37:38.881Z,45.40
2019-04-27T18:40:09.342Z,45.30
2019-04-27T18:42:38.527Z,45.70
2019-04-27T18:45:08.390Z,45.60
2019-04-27T18:47:40.517Z,45.80
2019-04-27T18:50:17.908Z,45.10
2019-04-27T18:52:50.234Z,45.10
2019-04-27T18:55:20.966Z,44.90
2019-04-27T18:57:53.200Z,44.70
2019-04-27T19:00:21.502Z,44.20
2019-04-27T19:02:50.500Z,44.00
2019-04-27T19:05:20.507Z,43.80
2019-04-27T19:07:50.945Z,43.40
2019-04-27T19:10:21.248Z,43.50
2019-04-27T19:12:50.118Z,43.50
2019-04-27T19:15:22.606Z,43.60
2019-04-27T19:17:51.537Z,43.90
2019-04-27T19:20:20.335Z,43.90
2019-04-27T19:22:49.249Z,43.90
2019-04-27T19:25:31.800Z,43.80
2019-04-27T19:28:18.712Z,43.40
2019-04-27T19:31:04.272Z,43.90
2019-04-27T19:33:33.006Z,44.00
2019-04-27T19:36:03.891Z,43.60
2019-04-27T19:38:32.271Z,44.20
2019-04-27T19:41:01.061Z,44.30
2019-04-27T19:43:29.867Z,44.40
2019-04-27T19:45:59.841Z,44.30
2019-04-27T19:48:28.738Z,44.00
2019-04-27T19:50:57.540Z,43.30
2019-04-27T19:53:26.347Z,43.40
2019-04-27T19:56:04.148Z,44.10
2019-04-27T19:58:38.154Z,44.80
2019-04-27T20:01:14.494Z,43.70
2019-04-27T20:03:44.665Z,44.90
2019-04-27T20:06:13.585Z,45.30
2019-04-27T20:08:44.963Z,45.00
2019-04-27T20:11:13.835Z,45.50
2019-04-27T20:13:44.091Z,46.80
2019-04-27T20:16:12.903Z,46.50
2019-04-27T20:18:43.355Z,46.90
2019-04-27T20:21:13.536Z,48.40
2019-04-27T20:23:42.307Z,49.40
2019-04-27T20:26:11.094Z,49.40
2019-04-27T20:28:41.416Z,50.10
2019-04-27T20:31:10.314Z,50.50
2019-04-27T20:33:39.055Z,50.50
2019-04-27T20:36:07.894Z,50.80
2019-04-27T20:38:36.549Z,50.50
2019-04-27T20:41:05.266Z,51.40
2019-04-27T20:43:33.955Z,52.60
2019-04-27T20:46:02.614Z,52.50
2019-04-27T20:48:31.377Z,52.80
2019-04-27T20:51:01.268Z,53.30
2019-04-27T20:53:34.311Z,53.30
2019-04-27T20:56:03.021Z,53.80
2019-04-27T20:58:31.691Z,54.10
2019-04-27T21:01:01.701Z,54.80
2019-04-27T21:03:32.798Z,54.80
2019-04-27T21:06:03.287Z,55.10
2019-04-27T21:08:33.581Z,55.00
2019-04-27T21:11:02.259Z,55.50
2019-04-27T21:13:31.042Z,55.40
2019-04-27T21:15:59.711Z,55.60
2019-04-27T21:18:28.364Z,56.00
2019-04-27T21:20:57.122Z,56.00
2019-04-27T21:23:25.774Z,56.20
2019-04-27T21:25:54.430Z,55.90
2019-04-27T21:28:23.070Z,55.20
2019-04-27T21:30:51.751Z,54.50
2019-04-27T21:33:21.528Z,54.80
2019-04-27T21:35:51.174Z,55.40
2019-04-27T21:38:19.955Z,55.10
2019-04-27T21:40:48.770Z,55.00
2019-04-27T21:43:21.608Z,55.10
2019-04-27T21:45:51.157Z,55.40
2019-04-27T21:48:21.200Z,55.60
2019-04-27T21:50:51.713Z,55.20
2019-04-27T21:53:38.229Z,55.00
2019-04-27T21:56:08.526Z,55.30
2019-04-27T21:58:37.190Z,55.50
2019-04-27T22:01:21.499Z,55.40
2019-04-27T22:03:50.618Z,55.20
2019-04-27T22:06:19.733Z,55.10
2019-04-27T22:08:48.485Z,55.10
2019-04-27T22:11:17.269Z,55.60
2019-04-27T22:13:45.956Z,55.10
2019-04-27T22:16:14.606Z,54.90
2019-04-27T22:18:43.329Z,55.50
2019-04-27T22:21:12.105Z,55.50
2019-04-27T22:23:48.184Z,55.80
2019-04-27T22:26:16.967Z,55.70
2019-04-27T22:28:49.248Z,55.60
2019-04-27T22:31:16.078Z,55.60
2019-04-27T22:33:44.786Z,55.90
2019-04-27T22:36:13.566Z,56.40
2019-04-27T22:38:42.286Z,56.00
2019-04-27T22:41:13.063Z,56.00
2019-04-27T22:44:01.316Z,55.50
2019-04-27T22:46:34.451Z,55.50
2019-04-27T22:49:03.111Z,55.60
2019-04-27T22:51:31.761Z,55.40
2019-04-27T22:54:01.315Z,55.60
2019-04-27T22:56:32.054Z,55.80
2019-04-27T22:59:04.012Z,56.00
2019-04-27T23:01:51.300Z,56.20
2019-04-27T23:04:41.204Z,56.60
2019-04-27T23:07:11.065Z,57.10
2019-04-27T23:09:40.749Z,57.40
2019-04-27T23:12:11.970Z,58.00
2019-04-27T23:14:41.467Z,58.70
2019-04-27T23:17:14.667Z,59.30
2019-04-27T23:19:43.426Z,60.00
2019-04-27T23:22:12.132Z,61.20
2019-04-27T23:24:41.462Z,61.90
2019-04-27T23:27:11.069Z,62.80
2019-04-27T23:29:41.681Z,63.60
2019-04-27T23:32:11.837Z,65.20
2019-04-27T23:34:41.547Z,66.20
2019-04-27T23:37:10.387Z,66.80
2019-04-27T23:39:39.122Z,67.00
2019-04-27T23:42:07.921Z,67.30
2019-04-27T23:44:36.570Z,68.20
2019-04-27T23:47:05.226Z,68.40
2019-04-27T23:49:33.888Z,69.30
2019-04-27T23:52:06.997Z,70.10
2019-04-27T23:54:35.727Z,70.70
2019-04-27T23:57:04.518Z,70.60
2019-04-27T23:59:33.373Z,70.50
